Time;durP1;ratioP1;P1;durP2;ratioP2;P2;SDS_P1;SDS_P2;PMS_P1;PMS_P2;Temp;Humidity;BMP_temperature;BMP_pressure;BME280_temperature;BME280_humidity;BME280_pressure;Samples;Min_cycle;Max_cycle;Signal;HPM_P1;HPM_P2
2022/12/13 00:01:39;;;;;;;1999.90;999.90;;;-5.80;99.90;;;;;;5051016;28;20469;-66
2022/12/13 00:04:07;;;;;;;1999.90;999.90;;;-5.80;99.90;;;;;;5048632;28;20482;-66
2022/12/13 00:06:35;;;;;;;1999.90;999.90;;;-5.90;99.90;;;;;;5046415;28;20463;-66
2022/12/13 00:09:03;;;;;;;1999.90;999.90;;;-5.90;99.90;;;;;;5052639;28;20466;-66
2022/12/13 00:11:32;;;;;;;1999.90;999.90;;;-6.00;99.90;;;;;;5050644;28;20490;-66
2022/12/13 00:13:58;;;;;;;1999.90;999.90;;;-6.00;99.90;;;;;;5050365;28;20486;-66
2022/12/13 00:16:26;;;;;;;1999.90;999.90;;;-5.90;99.90;;;;;;5054826;28;20458;-66
2022/12/13 00:18:55;;;;;;;1999.90;999.90;;;-6.00;99.90;;;;;;5056422;28;20466;-66
2022/12/13 00:21:23;;;;;;;1999.90;999.90;;;-5.90;99.90;;;;;;5057463;28;20486;-66
2022/12/13 00:23:50;;;;;;;1999.90;999.90;;;-5.80;99.90;;;;;;5055729;28;20569;-66
2022/12/13 00:26:18;;;;;;;1999.90;999.90;;;-5.90;99.90;;;;;;5052483;28;20465;-64
2022/12/13 00:28:48;;;;;;;1999.90;999.90;;;-6.00;99.90;;;;;;5056453;28;20472;-66
2022/12/13 00:31:15;;;;;;;1999.90;999.90;;;-6.00;99.90;;;;;;5056131;28;20486;-66
2022/12/13 00:33:42;;;;;;;1999.90;999.90;;;-6.00;99.90;;;;;;5061758;28;20481;-66
2022/12/13 00:36:09;;;;;;;1999.90;999.90;;;-5.90;99.90;;;;;;5055717;28;20473;-67
2022/12/13 00:38:37;;;;;;;1999.90;999.90;;;-5.90;99.90;;;;;;5062796;28;20462;-66
2022/12/13 00:41:11;;;;;;;1999.90;999.90;;;-5.90;99.90;;;;;;5055392;28;20473;-66
2022/12/13 00:43:38;;;;;;;1999.90;999.90;;;-5.90;99.90;;;;;;5055856;28;20478;-66
2022/12/13 00:46:07;;;;;;;1999.90;999.90;;;-6.00;99.90;;;;;;5055470;28;20476;-66
2022/12/13 00:48:34;;;;;;;1999.90;999.90;;;-6.00;99.90;;;;;;5055556;28;20466;-66
2022/12/13 00:51:06;;;;;;;1999.90;999.90;;;-6.10;99.90;;;;;;5055621;28;20491;-66
2022/12/13 00:53:33;;;;;;;1999.90;999.90;;;-6.10;99.90;;;;;;5054937;28;20490;-66
2022/12/13 00:55:59;;;;;;;1999.90;999.90;;;-6.10;99.90;;;;;;5057281;28;20475;-66
2022/12/13 00:58:26;;;;;;;1999.90;999.90;;;-6.00;99.90;;;;;;5055301;28;20458;-67
2022/12/13 01:00:53;;;;;;;1999.90;999.90;;;-6.00;99.90;;;;;;5054939;28;20450;-66
2022/12/13 01:03:24;;;;;;;1999.90;999.90;;;-6.00;99.90;;;;;;5055720;28;20490;-65
2022/12/13 01:05:51;;;;;;;1999.90;999.90;;;-6.00;99.90;;;;;;5054236;28;20545;-66
2022/12/13 01:08:18;;;;;;;1999.90;999.90;;;-6.00;99.90;;;;;;5055295;28;20466;-65
2022/12/13 01:10:45;;;;;;;1999.90;999.90;;;-6.10;99.90;;;;;;5056003;28;20858;-66
2022/12/13 01:13:12;;;;;;;1999.90;999.90;;;-6.20;99.90;;;;;;5056100;28;20993;-66
2022/12/13 01:15:42;;;;;;;1999.90;999.90;;;-6.10;99.90;;;;;;5050236;28;20459;-64
2022/12/13 01:18:08;;;;;;;1999.90;999.90;;;-6.10;99.90;;;;;;5054729;28;20507;-66
2022/12/13 01:20:37;;;;;;;1999.90;999.90;;;-6.10;99.90;;;;;;5054789;28;20462;-66
2022/12/13 01:23:04;;;;;;;1999.90;999.90;;;-6.10;99.90;;;;;;5055503;28;21204;-66
2022/12/13 01:25:32;;;;;;;1999.90;999.90;;;-6.20;99.90;;;;;;5054689;28;20462;-66
2022/12/13 01:27:59;;;;;;;1999.90;999.90;;;-6.20;99.90;;;;;;5054565;28;20548;-66
2022/12/13 01:30:26;;;;;;;1999.90;999.90;;;-6.30;99.90;;;;;;5054828;28;20461;-66
2022/12/13 01:32:53;;;;;;;1999.90;999.90;;;-6.30;99.90;;;;;;5056577;28;20478;-65
2022/12/13 01:35:20;;;;;;;1999.90;999.90;;;-6.30;99.90;;;;;;5054265;28;20473;-66
2022/12/13 01:37:48;;;;;;;1999.90;999.90;;;-5.90;99.90;;;;;;5055652;28;20461;-65
2022/12/13 01:40:15;;;;;;;1999.90;999.90;;;-6.30;99.90;;;;;;5055969;28;20469;-65
2022/12/13 01:42:41;;;;;;;1999.90;999.90;;;-6.30;99.90;;;;;;5055069;28;20482;-66
2022/12/13 01:45:23;;;;;;;1999.90;999.90;;;-6.20;99.90;;;;;;5051293;28;20462;-66
2022/12/13 01:47:54;;;;;;;1999.90;999.90;;;-6.20;99.90;;;;;;5053110;28;20466;-66
2022/12/13 01:50:24;;;;;;;1999.90;999.90;;;-6.30;99.90;;;;;;5049243;28;20845;-66
2022/12/13 01:52:55;;;;;;;1999.90;999.90;;;-6.20;99.90;;;;;;5054471;28;21012;-66
2022/12/13 01:55:25;;;;;;;1999.90;999.90;;;-6.20;99.90;;;;;;5047897;28;20469;-65
2022/12/13 01:57:55;;;;;;;1999.90;999.90;;;-6.20;99.90;;;;;;5050367;28;20480;-64
2022/12/13 02:00:22;;;;;;;1999.90;999.90;;;-6.30;99.90;;;;;;5050164;28;20474;-66
2022/12/13 02:02:49;;;;;;;1999.90;999.90;;;-6.30;99.90;;;;;;5052462;28;20484;-66
2022/12/13 02:05:23;;;;;;;1999.90;999.90;;;-6.30;99.90;;;;;;5051846;28;20462;-66
2022/12/13 02:07:50;;;;;;;1999.90;999.90;;;-6.30;99.90;;;;;;5052442;28;20465;-66
2022/12/13 02:10:19;;;;;;;1999.90;999.90;;;-6.30;99.90;;;;;;5051190;28;20477;-65
2022/12/13 02:12:46;;;;;;;1999.90;999.90;;;-6.30;99.90;;;;;;5050451;28;20510;-66
2022/12/13 02:15:14;;;;;;;1999.90;999.90;;;-6.30;99.90;;;;;;5052368;28;20489;-66
2022/12/13 02:18:02;;;;;;;1999.90;999.90;;;-6.30;99.90;;;;;;5051491;28;20462;-66
2022/12/13 02:20:49;;;;;;;1999.90;999.90;;;-6.30;99.90;;;;;;5049719;28;20454;-66
2022/12/13 02:23:52;;;;;;;1999.90;999.90;;;-6.30;99.90;;;;;;5050361;28;21057;-66
2022/12/13 02:26:38;;;;;;;1999.90;999.90;;;-6.40;99.90;;;;;;5050624;28;20519;-65
2022/12/13 02:29:32;;;;;;;1999.90;999.90;;;-6.60;99.90;;;;;;5049382;28;20473;-66
2022/12/13 02:32:04;;;;;;;1999.90;999.90;;;-6.60;99.90;;;;;;5051288;28;20497;-65
2022/12/13 02:34:39;;;;;;;1999.90;999.90;;;-6.60;99.90;;;;;;5050630;28;20458;-66
2022/12/13 02:37:14;;;;;;;1999.90;999.90;;;-6.70;99.90;;;;;;5050840;28;20466;-67
2022/12/13 02:39:44;;;;;;;1999.90;999.90;;;-6.60;99.90;;;;;;5052786;28;20501;-65
2022/12/13 02:42:17;;;;;;;1999.90;999.90;;;-6.60;99.90;;;;;;5051890;28;20454;-65
2022/12/13 02:44:51;;;;;;;1999.90;999.90;;;-6.60;99.90;;;;;;5049945;28;20972;-66
2022/12/13 02:47:22;;;;;;;1999.90;999.90;;;-6.60;99.90;;;;;;5050583;28;20478;-66
2022/12/13 02:49:53;;;;;;;1999.90;999.90;;;-6.60;99.90;;;;;;5048996;28;20451;-66
2022/12/13 02:52:25;;;;;;;1999.90;999.90;;;-6.50;99.90;;;;;;5049531;28;20486;-66
2022/12/13 02:54:54;;;;;;;1999.90;999.90;;;-6.40;99.90;;;;;;5052362;28;20459;-66
2022/12/13 02:57:30;;;;;;;1999.90;999.90;;;-6.40;99.90;;;;;;5050798;28;21320;-65
2022/12/13 03:00:00;;;;;;;1999.90;999.90;;;-6.40;99.90;;;;;;5048951;28;20950;-66
2022/12/13 03:02:40;;;;;;;1999.90;999.90;;;-6.40;99.90;;;;;;5061417;22;20486;-68
2022/12/13 03:08:14;;;;;;;1999.90;999.90;;;-6.30;99.90;;;;;;5047291;28;20942;-68
2022/12/13 03:10:59;;;;;;;1999.90;999.90;;;-6.40;99.90;;;;;;5052821;28;20467;-68
2022/12/13 03:13:36;;;;;;;1999.90;999.90;;;-6.30;99.90;;;;;;5041843;28;20485;-69
2022/12/13 03:16:10;;;;;;;1999.90;999.90;;;-6.20;99.90;;;;;;5036449;28;20458;-69
2022/12/13 03:18:39;;;;;;;1999.90;999.90;;;-6.40;99.90;;;;;;5027994;28;20459;-71
2022/12/13 03:21:09;;;;;;;1999.90;999.90;;;-6.40;99.90;;;;;;5028514;28;20551;-68
2022/12/13 03:23:37;;;;;;;1999.90;999.90;;;-6.40;99.90;;;;;;5033253;28;20493;-68
2022/12/13 03:26:13;;;;;;;1999.90;999.90;;;-6.30;99.90;;;;;;5039547;28;20551;-70
2022/12/13 03:28:41;;;;;;;1999.90;999.90;;;-6.30;99.90;;;;;;5034560;28;20550;-69
2022/12/13 03:31:08;;;;;;;1999.90;999.90;;;-6.30;99.90;;;;;;5032124;28;20499;-69
2022/12/13 03:33:37;;;;;;;1999.90;999.90;;;-6.30;99.90;;;;;;5028526;28;20486;-68
2022/12/13 03:36:06;;;;;;;1999.90;999.90;;;-6.30;99.90;;;;;;5036657;28;20609;-70
2022/12/13 03:38:33;;;;;;;1999.90;999.90;;;-6.30;99.90;;;;;;5034903;28;20465;-68
2022/12/13 03:41:03;;;;;;;1999.90;999.90;;;-6.30;99.90;;;;;;5035061;28;20463;-70
2022/12/13 03:43:30;;;;;;;1999.90;999.90;;;-6.40;99.90;;;;;;5032070;28;20875;-68
2022/12/13 03:45:57;;;;;;;1999.90;999.90;;;-6.40;99.90;;;;;;5031923;28;20459;-68
2022/12/13 03:48:24;;;;;;;1999.90;999.90;;;-6.40;99.90;;;;;;5028966;28;20470;-68
2022/12/13 03:50:52;;;;;;;1999.90;999.90;;;-6.40;99.90;;;;;;5031683;28;20463;-70
2022/12/13 03:53:22;;;;;;;1999.90;999.90;;;-6.50;99.90;;;;;;5037039;28;20486;-68
2022/12/13 03:55:48;;;;;;;1999.90;999.90;;;-6.40;99.90;;;;;;5033508;28;20460;-69
2022/12/13 03:58:15;;;;;;;1999.90;999.90;;;-6.40;99.90;;;;;;5036735;28;20470;-69
2022/12/13 04:00:42;;;;;;;1999.90;999.90;;;-6.40;99.90;;;;;;5028197;28;20473;-70
2022/12/13 04:03:09;;;;;;;1999.90;999.90;;;-6.30;99.90;;;;;;5027777;28;20494;-69
2022/12/13 04:05:35;;;;;;;1999.90;999.90;;;-6.30;99.90;;;;;;5032750;28;20465;-69
2022/12/13 04:08:02;;;;;;;1999.90;999.90;;;-6.30;99.90;;;;;;5033422;28;20471;-68
2022/12/13 04:10:30;;;;;;;1999.90;999.90;;;-6.20;99.90;;;;;;5037816;28;20465;-67
2022/12/13 04:15:47;;;;;;;1999.90;999.90;;;-6.10;99.90;;;;;;5026483;28;20970;-68
2022/12/13 04:18:14;;;;;;;1999.90;999.90;;;-6.10;99.90;;;;;;5035214;28;20463;-68
2022/12/13 04:20:41;;;;;;;1999.90;999.90;;;-6.20;99.90;;;;;;5034247;28;21003;-69
2022/12/13 04:23:08;;;;;;;1999.90;999.90;;;-6.10;99.90;;;;;;5035165;28;20479;-68
2022/12/13 04:25:36;;;;;;;1999.90;999.90;;;-6.10;99.90;;;;;;5034311;28;20458;-68
2022/12/13 04:28:03;;;;;;;1999.90;999.90;;;-6.20;99.90;;;;;;5030464;28;20467;-69
2022/12/13 04:30:29;;;;;;;1999.90;999.90;;;-6.20;99.90;;;;;;5030978;28;20470;-68
2022/12/13 04:32:56;;;;;;;1999.90;999.90;;;-6.30;99.90;;;;;;5034043;28;20502;-69
2022/12/13 04:35:23;;;;;;;1999.90;999.90;;;-6.30;99.90;;;;;;5036725;28;20462;-70
2022/12/13 04:37:50;;;;;;;1999.90;999.90;;;-6.30;99.90;;;;;;5031689;28;20841;-68
2022/12/13 04:40:17;;;;;;;1999.90;999.90;;;-6.30;99.90;;;;;;5037404;28;20473;-69
2022/12/13 04:42:45;;;;;;;1999.90;999.90;;;-6.30;99.90;;;;;;5027459;28;20487;-69
2022/12/13 04:45:15;;;;;;;1999.90;999.90;;;-6.30;99.90;;;;;;5032920;28;20459;-69
2022/12/13 04:47:42;;;;;;;1999.90;999.90;;;-6.30;99.90;;;;;;5030903;28;20467;-69
2022/12/13 04:50:10;;;;;;;1999.90;999.90;;;-6.40;99.90;;;;;;5036449;28;20465;-68
2022/12/13 04:52:38;;;;;;;1999.90;999.90;;;-6.50;99.90;;;;;;5032158;28;20486;-67
2022/12/13 04:55:05;;;;;;;1999.90;999.90;;;-6.60;99.90;;;;;;5032680;28;20459;-65
2022/12/13 04:57:32;;;;;;;1999.90;999.90;;;-6.60;99.90;;;;;;5027399;28;20966;-69
2022/12/13 05:00:00;;;;;;;1999.90;999.90;;;-6.70;99.90;;;;;;5031368;28;20469;-69
2022/12/13 05:02:27;;;;;;;1999.90;999.90;;;-6.60;99.90;;;;;;5027849;28;20482;-68
2022/12/13 05:04:54;;;;;;;1999.90;999.90;;;-6.70;99.90;;;;;;5033125;28;20851;-66
2022/12/13 05:07:21;;;;;;;1999.90;999.90;;;-6.70;99.90;;;;;;5031835;28;20490;-70
2022/12/13 05:09:48;;;;;;;1999.90;999.90;;;-6.70;99.90;;;;;;5031074;28;20463;-66
2022/12/13 05:12:15;;;;;;;1999.90;999.90;;;-6.70;99.90;;;;;;5027667;28;20995;-68
2022/12/13 05:14:41;;;;;;;1999.90;999.90;;;-6.70;99.90;;;;;;5032916;28;20550;-67
2022/12/13 05:17:09;;;;;;;1999.90;999.90;;;-6.60;99.90;;;;;;5033107;28;20463;-65
2022/12/13 05:19:36;;;;;;;1999.90;999.90;;;-6.60;99.90;;;;;;5037940;28;20470;-68
2022/12/13 05:22:03;;;;;;;1999.90;999.90;;;-6.60;99.90;;;;;;5038746;28;20462;-68
2022/12/13 05:24:31;;;;;;;1999.90;999.90;;;-6.70;99.90;;;;;;5032920;28;20455;-65
2022/12/13 05:26:58;;;;;;;1999.90;999.90;;;-6.70;99.90;;;;;;5033441;28;20526;-68
2022/12/13 05:29:26;;;;;;;1999.90;999.90;;;-6.70;99.90;;;;;;5040837;28;20462;-68
2022/12/13 05:31:53;;;;;;;1999.90;999.90;;;-6.60;99.90;;;;;;5036440;28;20487;-68
2022/12/13 05:34:21;;;;;;;1999.90;999.90;;;-6.60;99.90;;;;;;5040701;28;20497;-69
2022/12/13 05:36:48;;;;;;;1999.90;999.90;;;-6.60;99.90;;;;;;5036963;28;20849;-68
2022/12/13 05:39:14;;;;;;;1999.90;999.90;;;-6.60;99.90;;;;;;5027611;28;20466;-68
2022/12/13 05:41:41;;;;;;;1999.90;999.90;;;-6.50;99.90;;;;;;5038613;28;20480;-70
2022/12/13 05:44:09;;;;;;;1999.90;999.90;;;-6.50;99.90;;;;;;5037304;28;20543;-68
2022/12/13 05:46:36;;;;;;;1999.90;999.90;;;-6.50;99.90;;;;;;5038632;28;20485;-67
2022/12/13 05:49:02;;;;;;;1999.90;999.90;;;-6.50;99.90;;;;;;5043016;28;20493;-69
2022/12/13 05:51:30;;;;;;;1999.90;999.90;;;-6.50;99.90;;;;;;5032586;28;20463;-69
2022/12/13 05:53:57;;;;;;;1999.90;999.90;;;-6.60;99.90;;;;;;5034214;28;20463;-69
2022/12/13 05:56:24;;;;;;;1999.90;999.90;;;-6.60;99.90;;;;;;5037041;28;20455;-69
2022/12/13 05:58:52;;;;;;;1999.90;999.90;;;-6.60;99.90;;;;;;5034748;28;20463;-68
2022/12/13 06:01:20;;;;;;;1999.90;999.90;;;-6.60;99.90;;;;;;5041607;28;20950;-67
2022/12/13 06:03:46;;;;;;;1999.90;999.90;;;-6.70;99.90;;;;;;5034621;28;20514;-69
2022/12/13 06:06:16;;;;;;;1999.90;999.90;;;-6.70;99.90;;;;;;5033481;28;20459;-69
2022/12/13 06:08:44;;;;;;;1999.90;999.90;;;-6.60;99.90;;;;;;5030589;28;21073;-68
2022/12/13 06:11:11;;;;;;;1999.90;999.90;;;-6.60;99.90;;;;;;5041135;28;20490;-68
2022/12/13 06:13:37;;;;;;;1999.90;999.90;;;-6.70;99.90;;;;;;5038681;28;20485;-65
2022/12/13 06:16:06;;;;;;;1999.90;999.90;;;-6.70;99.90;;;;;;5037738;28;20459;-68
2022/12/13 06:18:35;;;;;;;1999.90;999.90;;;-6.70;99.90;;;;;;5039830;28;20465;-69
2022/12/13 06:21:04;;;;;;;1999.90;999.90;;;-6.70;99.90;;;;;;5029347;28;21131;-69
2022/12/13 06:23:32;;;;;;;1999.90;999.90;;;-6.60;99.90;;;;;;5034733;28;20520;-69
2022/12/13 06:26:02;;;;;;;1999.90;999.90;;;-6.60;99.90;;;;;;5037027;28;20460;-69
2022/12/13 06:28:29;;;;;;;1999.90;999.90;;;-6.50;99.90;;;;;;5036763;28;20462;-70
2022/12/13 06:30:59;;;;;;;1999.90;999.90;;;-6.50;99.90;;;;;;5033302;28;20455;-69
2022/12/13 06:33:27;;;;;;;1999.90;999.90;;;-6.50;99.90;;;;;;5034824;28;20865;-70
2022/12/13 06:35:57;;;;;;;1999.90;999.90;;;-6.60;99.90;;;;;;5028881;28;20849;-66
2022/12/13 06:38:24;;;;;;;1999.90;999.90;;;-6.60;99.90;;;;;;5030218;28;20472;-73
2022/12/13 06:40:51;;;;;;;1999.90;999.90;;;-6.50;99.90;;;;;;5036073;28;21187;-69
2022/12/13 06:43:19;;;;;;;1999.90;999.90;;;-6.50;99.90;;;;;;5039813;28;20487;-71
2022/12/13 06:45:46;;;;;;;1999.90;999.90;;;-6.50;99.90;;;;;;5034681;28;20493;-70
2022/12/13 06:48:14;;;;;;;1999.90;999.90;;;-6.50;99.90;;;;;;5034899;28;20510;-69
2022/12/13 06:50:41;;;;;;;1999.90;999.90;;;-6.60;99.90;;;;;;5037768;28;20471;-64
2022/12/13 06:53:07;;;;;;;1999.90;999.90;;;-6.60;99.90;;;;;;5030963;28;20486;-68
2022/12/13 06:55:35;;;;;;;1999.90;999.90;;;-6.60;99.90;;;;;;5035737;28;20490;-67
2022/12/13 06:58:02;;;;;;;1999.90;999.90;;;-6.50;99.90;;;;;;5040398;28;20517;-69
2022/12/13 07:00:31;;;;;;;1999.90;999.90;;;-6.50;99.90;;;;;;5033107;28;20469;-68
2022/12/13 07:02:57;;;;;;;1999.90;999.90;;;-6.40;99.90;;;;;;5036037;28;20494;-68
2022/12/13 07:05:26;;;;;;;1999.90;999.90;;;-6.40;99.90;;;;;;5028265;28;20456;-67
2022/12/13 07:07:53;;;;;;;1999.90;999.90;;;-6.40;99.90;;;;;;5028667;28;21246;-68
2022/12/13 07:10:20;;;;;;;1999.90;999.90;;;-6.40;99.90;;;;;;5040962;28;20485;-68
2022/12/13 07:12:47;;;;;;;1999.90;999.90;;;-6.40;99.90;;;;;;5038817;28;20490;-68
2022/12/13 07:15:13;;;;;;;1999.90;999.90;;;-6.40;99.90;;;;;;5040318;28;20456;-68
2022/12/13 07:17:42;;;;;;;1999.90;999.90;;;-6.40;99.90;;;;;;5038048;28;20473;-70
2022/12/13 07:20:10;;;;;;;1999.90;999.90;;;-6.30;99.90;;;;;;5029903;28;21017;-69
2022/12/13 07:22:37;;;;;;;1999.90;999.90;;;-6.30;99.90;;;;;;5033435;28;20479;-69
2022/12/13 07:25:05;;;;;;;1999.90;999.90;;;-6.30;99.90;;;;;;5035277;28;20467;-68
2022/12/13 07:27:32;;;;;;;1999.90;999.90;;;-6.30;99.90;;;;;;5028944;28;20960;-70
2022/12/13 07:29:59;;;;;;;1999.90;999.90;;;-6.20;99.90;;;;;;5034361;28;20487;-69
2022/12/13 07:32:26;;;;;;;1999.90;999.90;;;-6.10;99.90;;;;;;5031025;28;20491;-68
2022/12/13 07:34:54;;;;;;;1999.90;999.90;;;-6.10;99.90;;;;;;5027175;28;20470;-68
2022/12/13 07:37:20;;;;;;;1999.90;999.90;;;-6.10;99.90;;;;;;5031358;28;20462;-68
2022/12/13 07:39:47;;;;;;;1999.90;999.90;;;-6.20;99.90;;;;;;5033853;28;20459;-67
2022/12/13 07:42:14;;;;;;;1999.90;999.90;;;-6.20;99.90;;;;;;5028793;28;20544;-67
2022/12/13 07:44:41;;;;;;;1999.90;999.90;;;-6.20;99.90;;;;;;5021511;28;20517;-68
2022/12/13 07:47:08;;;;;;;1999.90;999.90;;;-6.30;99.90;;;;;;5025646;28;20489;-69
2022/12/13 07:49:35;;;;;;;1999.90;999.90;;;-6.30;99.90;;;;;;5046805;28;20443;-69
2022/12/13 07:52:03;;;;;;;1999.90;999.90;;;-6.30;99.90;;;;;;5029648;28;20464;-69
2022/12/13 07:54:30;;;;;;;1999.90;999.90;;;-6.30;99.90;;;;;;5043489;28;20545;-70
2022/12/13 07:56:56;;;;;;;1999.90;999.90;;;-6.30;99.90;;;;;;5035686;28;20466;-69
2022/12/13 07:59:23;;;;;;;1999.90;999.90;;;-6.30;99.90;;;;;;5027996;28;20470;-70
2022/12/13 08:01:50;;;;;;;1999.90;999.90;;;-6.20;99.90;;;;;;5029218;28;20462;-68
2022/12/13 08:04:16;;;;;;;1999.90;999.90;;;-6.20;99.90;;;;;;5034487;28;20483;-67
2022/12/13 08:06:43;;;;;;;1999.90;999.90;;;-6.10;99.90;;;;;;5027486;28;20807;-70
2022/12/13 08:09:11;;;;;;;1999.90;999.90;;;-6.00;99.90;;;;;;5043889;28;20819;-68
2022/12/13 08:11:38;;;;;;;1999.90;999.90;;;-5.90;99.90;;;;;;5032728;28;20485;-69
2022/12/13 08:14:06;;;;;;;1999.90;999.90;;;-5.90;99.90;;;;;;5030842;28;20479;-69
2022/12/13 08:16:32;;;;;;;1999.90;999.90;;;-5.80;99.90;;;;;;5048735;28;20466;-68
2022/12/13 08:19:00;;;;;;;1999.90;999.90;;;-5.70;99.90;;;;;;5035781;28;20451;-69
2022/12/13 08:21:27;;;;;;;1999.90;999.90;;;-5.60;99.90;;;;;;5032511;28;20450;-70
2022/12/13 08:23:54;;;;;;;1999.90;999.90;;;-5.50;99.90;;;;;;5032181;28;20459;-69
2022/12/13 08:26:22;;;;;;;1999.90;999.90;;;-5.40;99.90;;;;;;5030283;28;20470;-69
2022/12/13 08:28:49;;;;;;;1999.90;999.90;;;-5.40;99.90;;;;;;5031722;28;20459;-69
2022/12/13 08:31:16;;;;;;;1999.90;999.90;;;-5.30;99.90;;;;;;5031844;28;20454;-68
2022/12/13 08:33:45;;;;;;;1999.90;999.90;;;-5.20;99.90;;;;;;5031828;28;20487;-69
2022/12/13 08:36:15;;;;;;;1999.90;999.90;;;-5.00;99.90;;;;;;5031163;28;20452;-68
2022/12/13 08:38:42;;;;;;;1999.90;999.90;;;-4.90;99.90;;;;;;5032667;28;20450;-70
2022/12/13 08:41:09;;;;;;;1999.90;999.90;;;-4.70;99.90;;;;;;5031008;28;20473;-69
2022/12/13 08:43:37;;;;;;;1999.90;999.90;;;-4.50;99.90;;;;;;5032538;28;20470;-69
2022/12/13 08:46:04;;;;;;;1999.90;999.90;;;-4.30;99.90;;;;;;5032476;28;20451;-67
2022/12/13 08:48:32;;;;;;;1999.90;999.90;;;-4.20;99.90;;;;;;5033356;28;20454;-67
2022/12/13 08:51:01;;;;;;;1999.90;999.90;;;-3.90;99.90;;;;;;5033050;28;20453;-70
2022/12/13 08:53:28;;;;;;;1999.90;999.90;;;-3.90;99.90;;;;;;5031605;28;20487;-68
2022/12/13 08:55:59;;;;;;;1999.90;999.90;;;-3.80;99.90;;;;;;5034981;28;20473;-70
2022/12/13 08:58:26;;;;;;;1999.90;999.90;;;-3.80;99.90;;;;;;5034277;28;20470;-67
2022/12/13 09:00:54;;;;;;;1999.90;999.90;;;-3.60;99.90;;;;;;5045248;28;20891;-71
2022/12/13 09:03:21;;;;;;;1999.90;999.90;;;-3.50;99.90;;;;;;5040972;28;20566;-67
2022/12/13 09:05:47;;;;;;;1999.90;999.90;;;-3.40;99.90;;;;;;5040575;28;21275;-71
2022/12/13 09:08:15;;;;;;;1999.90;999.90;;;-3.20;99.90;;;;;;5042314;28;20470;-70
2022/12/13 09:10:41;;;;;;;1999.90;999.90;;;-3.00;99.90;;;;;;5040953;28;20493;-68
2022/12/13 09:13:08;;;;;;;1999.90;999.90;;;-2.90;99.90;;;;;;5034437;28;20557;-71
2022/12/13 09:15:39;;;;;;;1999.90;999.90;;;-2.90;99.90;;;;;;5033107;28;20463;-69
2022/12/13 09:18:07;;;;;;;1999.90;999.90;;;-2.80;99.90;;;;;;5036105;28;20981;-71
2022/12/13 09:20:36;;;;;;;1999.90;999.90;;;-2.70;99.90;;;;;;5033954;28;20952;-68
2022/12/13 09:23:04;;;;;;;1999.90;999.90;;;-2.70;99.90;;;;;;5033038;28;20517;-68
2022/12/13 09:25:32;;;;;;;1999.90;999.90;;;-2.70;99.90;;;;;;5037435;28;20458;-69
2022/12/13 09:28:00;;;;;;;1999.90;999.90;;;-2.80;99.90;;;;;;5039578;28;20513;-73
2022/12/13 09:30:35;;;;;;;1999.90;999.90;;;-2.80;99.90;;;;;;5034364;28;20474;-68
2022/12/13 09:33:02;;;;;;;1999.90;999.90;;;-2.70;99.90;;;;;;5032483;28;20997;-70
2022/12/13 09:35:31;;;;;;;1999.90;999.90;;;-2.60;99.90;;;;;;5035706;28;20464;-68
2022/12/13 09:37:57;;;;;;;1999.90;999.90;;;-2.50;99.90;;;;;;5041854;28;20947;-68
2022/12/13 09:40:27;;;;;;;1999.90;999.90;;;-2.40;99.90;;;;;;5035597;28;20455;-70
2022/12/13 09:42:57;;;;;;;1999.90;999.90;;;-2.30;99.90;;;;;;5036855;28;20539;-69
2022/12/13 09:45:25;;;;;;;1999.90;999.90;;;-2.10;99.90;;;;;;5032334;28;20476;-68
2022/12/13 09:47:53;;;;;;;1999.90;999.90;;;-2.00;99.90;;;;;;5032030;28;20950;-69
2022/12/13 09:50:25;;;;;;;1999.90;999.90;;;-1.90;99.90;;;;;;5034947;28;20469;-67
2022/12/13 09:52:55;;;;;;;1999.90;999.90;;;-1.80;99.90;;;;;;5037445;28;20557;-70
2022/12/13 09:55:23;;;;;;;1999.90;999.90;;;-2.00;99.90;;;;;;5031891;28;20467;-68
2022/12/13 09:57:51;;;;;;;1999.90;999.90;;;-2.00;99.90;;;;;;5032667;28;20966;-67
2022/12/13 10:00:20;;;;;;;1999.90;999.90;;;-2.10;99.90;;;;;;5037141;28;20460;-67
2022/12/13 10:02:49;;;;;;;1999.90;999.90;;;-1.80;99.90;;;;;;5036752;28;20557;-73
2022/12/13 10:05:21;;;;;;;1999.90;999.90;;;-2.10;99.90;;;;;;5036709;28;20454;-69
2022/12/13 10:07:49;;;;;;;1999.90;999.90;;;-2.00;99.90;;;;;;5038401;28;20817;-75
2022/12/13 10:10:18;;;;;;;1999.90;999.90;;;-2.00;99.90;;;;;;5036792;28;20963;-70
2022/12/13 10:12:48;;;;;;;1999.90;999.90;;;-1.90;99.90;;;;;;5042167;28;20465;-70
2022/12/13 10:15:18;;;;;;;1999.90;999.90;;;-1.80;99.90;;;;;;5055471;28;20431;-69
2022/12/13 10:17:48;;;;;;;1999.90;999.90;;;-1.60;99.90;;;;;;5038025;28;20458;-70
2022/12/13 10:20:18;;;;;;;1999.90;999.90;;;-1.70;99.90;;;;;;5036150;28;20448;-69
2022/12/13 10:22:45;;;;;;;1999.90;999.90;;;-1.60;99.90;;;;;;5035524;28;20474;-69
2022/12/13 10:25:12;;;;;;;1999.90;999.90;;;-1.50;99.90;;;;;;5034983;28;20452;-70
2022/12/13 10:27:44;;;;;;;1999.90;999.90;;;-1.20;99.90;;;;;;5035907;28;20454;-69
2022/12/13 10:30:15;;;;;;;1999.90;999.90;;;-1.30;99.90;;;;;;5036065;28;20515;-69
2022/12/13 10:32:52;;;;;;;1999.90;999.90;;;-1.50;99.90;;;;;;5034660;28;20487;-74
2022/12/13 10:35:23;;;;;;;1999.90;999.90;;;-1.50;99.90;;;;;;5034645;28;20462;-68
2022/12/13 10:37:50;;;;;;;1999.90;999.90;;;-1.40;99.90;;;;;;5035598;28;20446;-72
2022/12/13 10:40:26;;;;;;;1999.90;999.90;;;-1.50;99.90;;;;;;5035252;28;20451;-70
2022/12/13 10:43:14;;;;;;;1999.90;999.90;;;-1.40;99.90;;;;;;5035414;28;21027;-71
2022/12/13 10:45:41;;;;;;;1999.90;999.90;;;-1.30;99.90;;;;;;5034935;28;20508;-69
2022/12/13 10:48:19;;;;;;;1999.90;999.90;;;-1.10;99.90;;;;;;5034237;28;20459;-69
2022/12/13 10:50:58;;;;;;;1999.90;999.90;;;-0.90;99.90;;;;;;5033772;28;20423;-70
2022/12/13 10:53:29;;;;;;;1999.90;999.90;;;-0.90;99.90;;;;;;5039565;28;20581;-70
2022/12/13 10:55:57;;;;;;;1999.90;999.90;;;-0.80;99.90;;;;;;5047825;28;20812;-69
2022/12/13 10:58:36;;;;;;;1999.90;999.90;;;-0.70;99.90;;;;;;5033208;28;20467;-67
2022/12/13 11:01:12;;;;;;;1999.90;999.90;;;-0.70;99.90;;;;;;5031357;28;20521;-69
2022/12/13 11:03:38;;;;;;;1999.90;999.90;;;-0.60;99.90;;;;;;5030691;28;20486;-68
2022/12/13 11:06:11;;;;;;;1999.90;999.90;;;-0.50;99.90;;;;;;5033641;28;22053;-70
2022/12/13 11:08:38;;;;;;;1999.90;999.90;;;-0.20;99.90;;;;;;5038371;28;20505;-69
2022/12/13 11:11:07;;;;;;;1999.90;999.90;;;-0.30;99.90;;;;;;5039773;28;20457;-70
2022/12/13 11:13:38;;;;;;;1999.90;999.90;;;-0.20;99.90;;;;;;5039130;28;20482;-68
2022/12/13 11:16:16;;;;;;;1999.90;999.90;;;-0.10;99.90;;;;;;5032534;28;20466;-69
2022/12/13 11:18:43;;;;;;;1999.90;999.90;;;0.00;99.90;;;;;;5033769;28;20451;-69
2022/12/13 11:21:10;;;;;;;1999.90;999.90;;;0.10;99.90;;;;;;5033693;28;20790;-69
2022/12/13 11:23:42;;;;;;;1999.90;999.90;;;0.10;99.90;;;;;;5040002;28;21008;-69
2022/12/13 11:26:21;;;;;;;1999.90;999.90;;;0.20;99.90;;;;;;5044285;28;20468;-69
2022/12/13 11:29:05;;;;;;;1999.90;999.90;;;0.20;99.90;;;;;;5049356;28;20474;-68
2022/12/13 11:31:42;;;;;;;1999.90;999.90;;;0.20;99.90;;;;;;5031133;28;20505;-69
2022/12/13 11:34:25;;;;;;;1999.90;999.90;;;0.30;99.90;;;;;;5031499;28;20569;-72
2022/12/13 11:37:01;;;;;;;1999.90;999.90;;;0.20;99.90;;;;;;5041587;28;20461;-67
2022/12/13 11:39:32;;;;;;;1999.90;999.90;;;0.30;99.90;;;;;;5040741;28;20485;-69
2022/12/13 11:42:05;;;;;;;1999.90;999.90;;;0.20;99.90;;;;;;5044770;28;20580;-71
2022/12/13 11:44:43;;;;;;;1999.90;999.90;;;0.30;99.90;;;;;;5040218;28;20462;-69
2022/12/13 11:47:16;;;;;;;1999.90;999.90;;;0.30;99.90;;;;;;5032755;28;21013;-70
2022/12/13 11:49:45;;;;;;;1999.90;999.90;;;0.40;99.90;;;;;;5035405;28;20967;-69
2022/12/13 11:52:16;;;;;;;1999.90;999.90;;;0.30;99.90;;;;;;5036337;28;20471;-70
2022/12/13 11:54:50;;;;;;;1999.90;999.90;;;0.30;99.90;;;;;;5036714;28;20573;-70
2022/12/13 11:57:29;;;;;;;1999.90;999.90;;;0.20;99.90;;;;;;5043680;28;20473;-67
2022/12/13 12:00:09;;;;;;;1999.90;999.90;;;0.20;99.90;;;;;;5041713;28;20457;-71
2022/12/13 12:02:42;;;;;;;1999.90;999.90;;;0.20;99.90;;;;;;5026220;28;20494;-70
2022/12/13 12:05:22;;;;;;;1999.90;999.90;;;0.30;99.90;;;;;;5032615;28;20486;-70
2022/12/13 12:07:54;;;;;;;1999.90;999.90;;;0.30;99.90;;;;;;5033160;28;20431;-71
2022/12/13 12:10:29;;;;;;;1999.90;999.90;;;0.30;99.90;;;;;;5033431;28;20423;-69
2022/12/13 12:13:03;;;;;;;1999.90;999.90;;;0.20;99.90;;;;;;5034422;28;20462;-67
2022/12/13 12:15:36;;;;;;;1999.90;999.90;;;0.10;99.90;;;;;;5032203;28;20481;-70
2022/12/13 12:18:03;;;;;;;1999.90;999.90;;;0.20;99.90;;;;;;5033169;28;20533;-68